sensor_id;sensor_type;location;lat;lon;timestamp;temperature;humidity
14170;DHT22;63889;50.596;8.690;2023-05-10T00:01:47;14.90;99.90
14170;DHT22;63889;50.596;8.690;2023-05-10T00:04:13;14.90;99.90
14170;DHT22;63889;50.596;8.690;2023-05-10T00:06:39;14.90;99.90
14170;DHT22;63889;50.596;8.690;2023-05-10T00:09:04;14.90;99.90
14170;DHT22;63889;50.596;8.690;2023-05-10T00:11:30;14.80;99.90
14170;DHT22;63889;50.596;8.690;2023-05-10T00:13:55;14.80;99.90
14170;DHT22;63889;50.596;8.690;2023-05-10T00:16:21;14.80;99.90
14170;DHT22;63889;50.596;8.690;2023-05-10T00:18:46;14.80;99.90
14170;DHT22;63889;50.596;8.690;2023-05-10T00:21:12;14.70;99.90
14170;DHT22;63889;50.596;8.690;2023-05-10T00:23:37;14.60;99.90
14170;DHT22;63889;50.596;8.690;2023-05-10T00:26:03;14.50;99.90
14170;DHT22;63889;50.596;8.690;2023-05-10T00:28:29;14.40;99.90
14170;DHT22;63889;50.596;8.690;2023-05-10T00:30:54;14.30;99.90
14170;DHT22;63889;50.596;8.690;2023-05-10T00:33:20;14.30;99.90
14170;DHT22;63889;50.596;8.690;2023-05-10T00:35:46;14.20;99.90
14170;DHT22;63889;50.596;8.690;2023-05-10T00:38:12;14.00;99.90
14170;DHT22;63889;50.596;8.690;2023-05-10T00:40:37;14.10;99.90
14170;DHT22;63889;50.596;8.690;2023-05-10T00:43:03;14.00;99.90
14170;DHT22;63889;50.596;8.690;2023-05-10T00:45:30;14.00;99.90
14170;DHT22;63889;50.596;8.690;2023-05-10T00:47:56;13.90;99.90
14170;DHT22;63889;50.596;8.690;2023-05-10T00:50:22;13.90;99.90
14170;DHT22;63889;50.596;8.690;2023-05-10T00:52:49;14.00;99.90
14170;DHT22;63889;50.596;8.690;2023-05-10T00:55:14;13.90;99.90
14170;DHT22;63889;50.596;8.690;2023-05-10T00:57:40;13.90;99.90
14170;DHT22;63889;50.596;8.690;2023-05-10T01:00:06;13.90;99.90
14170;DHT22;63889;50.596;8.690;2023-05-10T01:02:34;13.90;99.90
14170;DHT22;63889;50.596;8.690;2023-05-10T01:05:00;13.90;99.90
14170;DHT22;63889;50.596;8.690;2023-05-10T01:07:26;13.90;99.90
14170;DHT22;63889;50.596;8.690;2023-05-10T01:09:52;14.00;99.90
14170;DHT22;63889;50.596;8.690;2023-05-10T01:12:17;14.00;99.90
14170;DHT22;63889;50.596;8.690;2023-05-10T01:14:43;14.00;99.90
14170;DHT22;63889;50.596;8.690;2023-05-10T01:17:09;14.00;99.90
14170;DHT22;63889;50.596;8.690;2023-05-10T01:19:36;14.00;99.90
14170;DHT22;63889;50.596;8.690;2023-05-10T01:33:54;13.80;99.90
14170;DHT22;63889;50.596;8.690;2023-05-10T01:37:52;13.70;99.90
14170;DHT22;63889;50.596;8.690;2023-05-10T01:39:49;13.80;99.90
14170;DHT22;63889;50.596;8.690;2023-05-10T01:42:21;13.80;99.90
14170;DHT22;63889;50.596;8.690;2023-05-10T01:45:04;13.90;99.90
14170;DHT22;63889;50.596;8.690;2023-05-10T01:50:00;13.90;99.90
14170;DHT22;63889;50.596;8.690;2023-05-10T01:52:33;13.90;99.90
14170;DHT22;63889;50.596;8.690;2023-05-10T01:55:04;13.90;99.90
14170;DHT22;63889;50.596;8.690;2023-05-10T01:57:35;13.90;99.90
14170;DHT22;63889;50.596;8.690;2023-05-10T02:00:03;13.90;99.90
14170;DHT22;63889;50.596;8.690;2023-05-10T02:02:33;13.90;99.90
14170;DHT22;63889;50.596;8.690;2023-05-10T02:05:00;13.90;99.90
14170;DHT22;63889;50.596;8.690;2023-05-10T02:07:28;13.90;99.90
14170;DHT22;63889;50.596;8.690;2023-05-10T02:09:55;13.90;99.90
14170;DHT22;63889;50.596;8.690;2023-05-10T02:12:22;13.90;99.90
14170;DHT22;63889;50.596;8.690;2023-05-10T02:14:50;13.90;99.90
14170;DHT22;63889;50.596;8.690;2023-05-10T02:17:16;13.90;99.90
14170;DHT22;63889;50.596;8.690;2023-05-10T02:19:43;13.90;99.90
14170;DHT22;63889;50.596;8.690;2023-05-10T02:22:11;13.90;99.90
14170;DHT22;63889;50.596;8.690;2023-05-10T02:24:37;13.90;99.90
14170;DHT22;63889;50.596;8.690;2023-05-10T02:27:04;13.90;99.90
14170;DHT22;63889;50.596;8.690;2023-05-10T02:29:32;13.80;99.90
14170;DHT22;63889;50.596;8.690;2023-05-10T02:31:58;13.80;99.90
14170;DHT22;63889;50.596;8.690;2023-05-10T02:34:28;13.80;99.90
14170;DHT22;63889;50.596;8.690;2023-05-10T02:36:54;13.80;99.90
14170;DHT22;63889;50.596;8.690;2023-05-10T02:39:21;13.70;99.90
14170;DHT22;63889;50.596;8.690;2023-05-10T02:41:48;13.80;99.90
14170;DHT22;63889;50.596;8.690;2023-05-10T02:44:18;13.80;99.90
14170;DHT22;63889;50.596;8.690;2023-05-10T02:46:44;13.80;99.90
14170;DHT22;63889;50.596;8.690;2023-05-10T02:49:10;13.80;99.90
14170;DHT22;63889;50.596;8.690;2023-05-10T02:51:39;13.80;99.90
14170;DHT22;63889;50.596;8.690;2023-05-10T02:54:15;13.80;99.90
14170;DHT22;63889;50.596;8.690;2023-05-10T02:56:47;13.80;99.90
14170;DHT22;63889;50.596;8.690;2023-05-10T02:59:13;13.90;99.90
14170;DHT22;63889;50.596;8.690;2023-05-10T03:01:38;13.90;99.90
14170;DHT22;63889;50.596;8.690;2023-05-10T03:04:04;13.90;99.90
14170;DHT22;63889;50.596;8.690;2023-05-10T03:06:29;13.90;99.90
14170;DHT22;63889;50.596;8.690;2023-05-10T03:08:55;13.80;99.90
14170;DHT22;63889;50.596;8.690;2023-05-10T03:17:04;13.90;99.90
14170;DHT22;63889;50.596;8.690;2023-05-10T03:22:37;13.80;99.90
14170;DHT22;63889;50.596;8.690;2023-05-10T03:25:07;13.80;99.90
14170;DHT22;63889;50.596;8.690;2023-05-10T03:27:35;13.80;99.90
14170;DHT22;63889;50.596;8.690;2023-05-10T03:30:02;13.80;99.90
14170;DHT22;63889;50.596;8.690;2023-05-10T03:32:29;13.80;99.90
14170;DHT22;63889;50.596;8.690;2023-05-10T03:34:57;13.80;99.90
14170;DHT22;63889;50.596;8.690;2023-05-10T03:37:22;13.80;99.90
14170;DHT22;63889;50.596;8.690;2023-05-10T03:39:48;13.80;99.90
14170;DHT22;63889;50.596;8.690;2023-05-10T03:42:13;13.80;99.90
14170;DHT22;63889;50.596;8.690;2023-05-10T03:44:39;13.80;99.90
14170;DHT22;63889;50.596;8.690;2023-05-10T03:47:05;13.80;99.90
14170;DHT22;63889;50.596;8.690;2023-05-10T03:49:30;13.80;99.90
14170;DHT22;63889;50.596;8.690;2023-05-10T03:51:56;13.80;99.90
14170;DHT22;63889;50.596;8.690;2023-05-10T03:54:21;13.80;99.90
14170;DHT22;63889;50.596;8.690;2023-05-10T03:56:47;13.80;99.90
14170;DHT22;63889;50.596;8.690;2023-05-10T03:59:15;13.80;99.90
14170;DHT22;63889;50.596;8.690;2023-05-10T04:01:40;13.70;99.90
14170;DHT22;63889;50.596;8.690;2023-05-10T04:04:06;13.70;99.90
14170;DHT22;63889;50.596;8.690;2023-05-10T04:06:32;13.70;99.90
14170;DHT22;63889;50.596;8.690;2023-05-10T04:08:57;13.70;99.90
14170;DHT22;63889;50.596;8.690;2023-05-10T04:11:25;13.70;99.90
14170;DHT22;63889;50.596;8.690;2023-05-10T04:13:50;13.80;99.90
14170;DHT22;63889;50.596;8.690;2023-05-10T04:16:16;13.70;99.90
14170;DHT22;63889;50.596;8.690;2023-05-10T04:18:41;13.70;99.90
14170;DHT22;63889;50.596;8.690;2023-05-10T04:21:14;13.70;99.90
14170;DHT22;63889;50.596;8.690;2023-05-10T04:23:40;13.60;99.90
14170;DHT22;63889;50.596;8.690;2023-05-10T04:26:06;13.60;99.90
14170;DHT22;63889;50.596;8.690;2023-05-10T04:28:32;13.70;99.90
14170;DHT22;63889;50.596;8.690;2023-05-10T04:31:05;13.60;99.90
14170;DHT22;63889;50.596;8.690;2023-05-10T04:33:32;13.60;99.90
14170;DHT22;63889;50.596;8.690;2023-05-10T04:35:57;13.60;99.90
14170;DHT22;63889;50.596;8.690;2023-05-10T04:38:23;13.60;99.90
14170;DHT22;63889;50.596;8.690;2023-05-10T04:40:48;13.60;99.90
14170;DHT22;63889;50.596;8.690;2023-05-10T04:43:14;13.60;99.90
14170;DHT22;63889;50.596;8.690;2023-05-10T04:45:40;13.60;99.90
14170;DHT22;63889;50.596;8.690;2023-05-10T04:48:05;13.60;99.90
14170;DHT22;63889;50.596;8.690;2023-05-10T04:50:31;13.60;99.90
14170;DHT22;63889;50.596;8.690;2023-05-10T04:52:57;13.70;99.90
14170;DHT22;63889;50.596;8.690;2023-05-10T04:55:22;13.70;99.90
14170;DHT22;63889;50.596;8.690;2023-05-10T04:57:48;13.70;99.90
14170;DHT22;63889;50.596;8.690;2023-05-10T05:00:14;13.80;99.90
14170;DHT22;63889;50.596;8.690;2023-05-10T05:02:42;13.80;99.90
14170;DHT22;63889;50.596;8.690;2023-05-10T05:05:09;13.80;99.90
14170;DHT22;63889;50.596;8.690;2023-05-10T05:07:34;13.80;99.90
14170;DHT22;63889;50.596;8.690;2023-05-10T05:10:00;13.90;99.90
14170;DHT22;63889;50.596;8.690;2023-05-10T05:12:25;13.90;99.90
14170;DHT22;63889;50.596;8.690;2023-05-10T05:14:51;13.90;99.90
14170;DHT22;63889;50.596;8.690;2023-05-10T05:17:16;13.80;99.90
14170;DHT22;63889;50.596;8.690;2023-05-10T05:19:42;13.80;99.90
14170;DHT22;63889;50.596;8.690;2023-05-10T05:22:07;13.80;99.90
14170;DHT22;63889;50.596;8.690;2023-05-10T05:24:37;13.90;99.90
14170;DHT22;63889;50.596;8.690;2023-05-10T05:27:03;14.00;99.90
14170;DHT22;63889;50.596;8.690;2023-05-10T05:29:29;14.00;99.90
14170;DHT22;63889;50.596;8.690;2023-05-10T05:31:55;14.10;99.90
14170;DHT22;63889;50.596;8.690;2023-05-10T05:34:20;14.10;99.90
14170;DHT22;63889;50.596;8.690;2023-05-10T05:36:47;14.10;99.90
14170;DHT22;63889;50.596;8.690;2023-05-10T05:39:13;14.10;99.90
14170;DHT22;63889;50.596;8.690;2023-05-10T05:41:38;14.20;99.90
14170;DHT22;63889;50.596;8.690;2023-05-10T05:44:04;14.20;99.90
14170;DHT22;63889;50.596;8.690;2023-05-10T05:46:29;14.20;99.90
14170;DHT22;63889;50.596;8.690;2023-05-10T05:48:55;14.20;99.90
14170;DHT22;63889;50.596;8.690;2023-05-10T05:51:20;14.30;99.90
14170;DHT22;63889;50.596;8.690;2023-05-10T05:53:46;14.20;99.90
14170;DHT22;63889;50.596;8.690;2023-05-10T05:56:11;14.20;99.90
14170;DHT22;63889;50.596;8.690;2023-05-10T05:58:37;14.20;99.90
14170;DHT22;63889;50.596;8.690;2023-05-10T06:01:02;14.20;99.90
14170;DHT22;63889;50.596;8.690;2023-05-10T06:03:28;14.30;99.90
14170;DHT22;63889;50.596;8.690;2023-05-10T06:05:53;14.30;99.90
14170;DHT22;63889;50.596;8.690;2023-05-10T06:08:19;14.30;99.90
14170;DHT22;63889;50.596;8.690;2023-05-10T06:10:45;14.30;99.90
14170;DHT22;63889;50.596;8.690;2023-05-10T06:13:11;14.30;99.90
14170;DHT22;63889;50.596;8.690;2023-05-10T06:15:36;14.30;99.90
14170;DHT22;63889;50.596;8.690;2023-05-10T06:18:02;14.30;99.90
14170;DHT22;63889;50.596;8.690;2023-05-10T06:20:28;14.30;99.90
14170;DHT22;63889;50.596;8.690;2023-05-10T06:22:53;14.40;99.90
14170;DHT22;63889;50.596;8.690;2023-05-10T06:25:19;14.40;99.90
14170;DHT22;63889;50.596;8.690;2023-05-10T06:27:45;14.40;99.90
14170;DHT22;63889;50.596;8.690;2023-05-10T06:30:10;14.50;99.90
14170;DHT22;63889;50.596;8.690;2023-05-10T06:32:38;14.50;99.90
14170;DHT22;63889;50.596;8.690;2023-05-10T06:35:04;14.60;99.90
14170;DHT22;63889;50.596;8.690;2023-05-10T06:37:29;14.60;99.90
14170;DHT22;63889;50.596;8.690;2023-05-10T06:39:55;14.60;99.90
14170;DHT22;63889;50.596;8.690;2023-05-10T06:42:21;14.60;99.90
14170;DHT22;63889;50.596;8.690;2023-05-10T06:44:46;14.60;99.90
14170;DHT22;63889;50.596;8.690;2023-05-10T06:47:12;14.60;99.90
14170;DHT22;63889;50.596;8.690;2023-05-10T06:49:37;14.60;99.90
14170;DHT22;63889;50.596;8.690;2023-05-10T06:52:03;14.60;99.90
14170;DHT22;63889;50.596;8.690;2023-05-10T06:54:29;14.60;99.90
14170;DHT22;63889;50.596;8.690;2023-05-10T06:56:55;14.60;99.90
14170;DHT22;63889;50.596;8.690;2023-05-10T06:59:20;14.70;99.90
14170;DHT22;63889;50.596;8.690;2023-05-10T07:01:47;14.70;99.90
14170;DHT22;63889;50.596;8.690;2023-05-10T07:04:12;14.80;99.90
14170;DHT22;63889;50.596;8.690;2023-05-10T07:06:38;14.90;99.90
14170;DHT22;63889;50.596;8.690;2023-05-10T07:09:04;14.90;99.90
14170;DHT22;63889;50.596;8.690;2023-05-10T07:11:29;15.00;99.90
14170;DHT22;63889;50.596;8.690;2023-05-10T07:13:55;15.00;99.90
14170;DHT22;63889;50.596;8.690;2023-05-10T07:16:20;15.00;99.90
14170;DHT22;63889;50.596;8.690;2023-05-10T07:18:46;15.00;99.90
14170;DHT22;63889;50.596;8.690;2023-05-10T07:21:12;15.00;99.90
14170;DHT22;63889;50.596;8.690;2023-05-10T07:23:37;15.00;99.90
14170;DHT22;63889;50.596;8.690;2023-05-10T07:26:03;15.00;99.90
14170;DHT22;63889;50.596;8.690;2023-05-10T07:28:29;15.00;99.90
14170;DHT22;63889;50.596;8.690;2023-05-10T07:30:54;15.00;99.90
14170;DHT22;63889;50.596;8.690;2023-05-10T07:33:20;15.10;99.90
14170;DHT22;63889;50.596;8.690;2023-05-10T07:35:45;15.10;99.90
14170;DHT22;63889;50.596;8.690;2023-05-10T07:38:11;15.10;99.90
14170;DHT22;63889;50.596;8.690;2023-05-10T07:40:37;15.10;99.90
14170;DHT22;63889;50.596;8.690;2023-05-10T07:43:03;15.20;99.90
14170;DHT22;63889;50.596;8.690;2023-05-10T07:45:29;15.30;99.90
14170;DHT22;63889;50.596;8.690;2023-05-10T07:47:54;15.40;99.90
14170;DHT22;63889;50.596;8.690;2023-05-10T07:50:20;15.40;99.90
14170;DHT22;63889;50.596;8.690;2023-05-10T07:52:47;15.50;99.90
14170;DHT22;63889;50.596;8.690;2023-05-10T07:55:13;15.50;99.90
14170;DHT22;63889;50.596;8.690;2023-05-10T07:57:38;15.60;99.90
14170;DHT22;63889;50.596;8.690;2023-05-10T08:00:05;15.60;99.90
14170;DHT22;63889;50.596;8.690;2023-05-10T08:02:31;15.60;99.90
14170;DHT22;63889;50.596;8.690;2023-05-10T08:04:56;15.60;99.90
14170;DHT22;63889;50.596;8.690;2023-05-10T08:07:23;15.60;99.90
14170;DHT22;63889;50.596;8.690;2023-05-10T08:09:49;15.70;99.90
14170;DHT22;63889;50.596;8.690;2023-05-10T08:12:15;15.70;99.90
14170;DHT22;63889;50.596;8.690;2023-05-10T08:14:41;15.70;99.90
14170;DHT22;63889;50.596;8.690;2023-05-10T08:17:06;15.70;99.90
14170;DHT22;63889;50.596;8.690;2023-05-10T08:19:31;15.80;99.90
14170;DHT22;63889;50.596;8.690;2023-05-10T08:21:57;15.70;99.90
14170;DHT22;63889;50.596;8.690;2023-05-10T08:24:23;15.80;99.90
14170;DHT22;63889;50.596;8.690;2023-05-10T08:26:48;15.80;99.90
14170;DHT22;63889;50.596;8.690;2023-05-10T08:29:14;15.80;99.90
14170;DHT22;63889;50.596;8.690;2023-05-10T08:31:40;15.80;99.90
14170;DHT22;63889;50.596;8.690;2023-05-10T08:34:05;15.90;99.90
14170;DHT22;63889;50.596;8.690;2023-05-10T08:36:31;16.00;99.90
14170;DHT22;63889;50.596;8.690;2023-05-10T08:38:57;16.00;99.90
14170;DHT22;63889;50.596;8.690;2023-05-10T08:41:24;16.00;99.90
14170;DHT22;63889;50.596;8.690;2023-05-10T08:43:51;16.10;99.90
14170;DHT22;63889;50.596;8.690;2023-05-10T08:46:19;16.20;99.90
14170;DHT22;63889;50.596;8.690;2023-05-10T08:48:46;16.30;99.90
14170;DHT22;63889;50.596;8.690;2023-05-10T08:51:17;16.20;99.90
14170;DHT22;63889;50.596;8.690;2023-05-10T08:53:44;16.20;99.90
14170;DHT22;63889;50.596;8.690;2023-05-10T08:56:10;16.10;99.90
14170;DHT22;63889;50.596;8.690;2023-05-10T08:58:36;16.10;99.90
14170;DHT22;63889;50.596;8.690;2023-05-10T09:01:02;16.00;99.90
14170;DHT22;63889;50.596;8.690;2023-05-10T09:03:29;15.90;99.90
14170;DHT22;63889;50.596;8.690;2023-05-10T09:05:55;15.80;99.90
14170;DHT22;63889;50.596;8.690;2023-05-10T09:08:21;15.60;99.90
14170;DHT22;63889;50.596;8.690;2023-05-10T09:10:50;15.30;99.90
14170;DHT22;63889;50.596;8.690;2023-05-10T09:13:17;15.00;99.90
14170;DHT22;63889;50.596;8.690;2023-05-10T09:15:44;14.80;99.90
14170;DHT22;63889;50.596;8.690;2023-05-10T09:18:09;14.80;99.90
14170;DHT22;63889;50.596;8.690;2023-05-10T09:20:35;14.80;99.90
14170;DHT22;63889;50.596;8.690;2023-05-10T09:23:00;14.90;99.90
14170;DHT22;63889;50.596;8.690;2023-05-10T09:25:26;14.90;99.90
14170;DHT22;63889;50.596;8.690;2023-05-10T09:27:52;14.80;99.90
14170;DHT22;63889;50.596;8.690;2023-05-10T09:30:26;14.80;99.90
14170;DHT22;63889;50.596;8.690;2023-05-10T09:32:52;14.70;99.90
14170;DHT22;63889;50.596;8.690;2023-05-10T09:35:23;14.70;99.90
14170;DHT22;63889;50.596;8.690;2023-05-10T09:37:51;14.60;99.90
14170;DHT22;63889;50.596;8.690;2023-05-10T09:40:19;14.60;99.90
14170;DHT22;63889;50.596;8.690;2023-05-10T09:42:56;14.70;99.90
14170;DHT22;63889;50.596;8.690;2023-05-10T09:45:24;14.70;99.90
14170;DHT22;63889;50.596;8.690;2023-05-10T09:47:49;14.70;99.90
14170;DHT22;63889;50.596;8.690;2023-05-10T09:50:15;14.80;99.90
14170;DHT22;63889;50.596;8.690;2023-05-10T09:53:01;15.00;99.90
14170;DHT22;63889;50.596;8.690;2023-05-10T09:55:39;15.10;99.90
14170;DHT22;63889;50.596;8.690;2023-05-10T09:58:06;15.10;99.90
14170;DHT22;63889;50.596;8.690;2023-05-10T10:00:40;15.20;99.90
14170;DHT22;63889;50.596;8.690;2023-05-10T10:03:07;15.20;99.90
14170;DHT22;63889;50.596;8.690;2023-05-10T10:05:40;15.20;99.90
14170;DHT22;63889;50.596;8.690;2023-05-10T10:08:06;15.20;99.90
14170;DHT22;63889;50.596;8.690;2023-05-10T10:10:33;15.20;99.90
14170;DHT22;63889;50.596;8.690;2023-05-10T10:12:58;15.20;99.90
14170;DHT22;63889;50.596;8.690;2023-05-10T10:15:25;15.30;99.90
14170;DHT22;63889;50.596;8.690;2023-05-10T10:17:51;15.20;99.90
14170;DHT22;63889;50.596;8.690;2023-05-10T10:20:19;15.20;99.90
14170;DHT22;63889;50.596;8.690;2023-05-10T10:22:45;15.10;99.90
14170;DHT22;63889;50.596;8.690;2023-05-10T10:25:12;15.20;99.90
14170;DHT22;63889;50.596;8.690;2023-05-10T10:30:45;15.30;99.90
14170;DHT22;63889;50.596;8.690;2023-05-10T10:33:39;15.30;99.90
14170;DHT22;63889;50.596;8.690;2023-05-10T10:36:08;15.30;99.90
14170;DHT22;63889;50.596;8.690;2023-05-10T10:41:11;15.50;99.90
14170;DHT22;63889;50.596;8.690;2023-05-10T10:49:26;15.50;99.90
14170;DHT22;63889;50.596;8.690;2023-05-10T10:54:40;15.50;99.90
14170;DHT22;63889;50.596;8.690;2023-05-10T10:57:11;15.60;99.90
14170;DHT22;63889;50.596;8.690;2023-05-10T10:59:44;15.70;99.90
14170;DHT22;63889;50.596;8.690;2023-05-10T11:02:09;15.70;99.90
14170;DHT22;63889;50.596;8.690;2023-05-10T11:04:42;15.70;99.90
14170;DHT22;63889;50.596;8.690;2023-05-10T11:07:19;15.80;99.90
14170;DHT22;63889;50.596;8.690;2023-05-10T11:09:48;15.90;99.90
14170;DHT22;63889;50.596;8.690;2023-05-10T11:12:13;15.90;99.90
14170;DHT22;63889;50.596;8.690;2023-05-10T11:14:40;15.80;99.90
14170;DHT22;63889;50.596;8.690;2023-05-10T11:17:24;15.90;99.90
14170;DHT22;63889;50.596;8.690;2023-05-10T11:20:10;15.90;99.90
14170;DHT22;63889;50.596;8.690;2023-05-10T11:23:11;16.00;99.90
14170;DHT22;63889;50.596;8.690;2023-05-10T11:25:42;16.00;99.90
14170;DHT22;63889;50.596;8.690;2023-05-10T11:28:09;16.00;99.90
14170;DHT22;63889;50.596;8.690;2023-05-10T11:30:36;15.90;99.90
14170;DHT22;63889;50.596;8.690;2023-05-10T11:33:03;15.60;99.90
14170;DHT22;63889;50.596;8.690;2023-05-10T11:35:28;15.50;99.90
14170;DHT22;63889;50.596;8.690;2023-05-10T11:37:54;15.50;99.90
14170;DHT22;63889;50.596;8.690;2023-05-10T11:40:21;15.50;99.90
14170;DHT22;63889;50.596;8.690;2023-05-10T11:42:50;15.70;99.90
14170;DHT22;63889;50.596;8.690;2023-05-10T11:45:15;15.60;99.90
14170;DHT22;63889;50.596;8.690;2023-05-10T11:47:41;15.60;99.90
14170;DHT22;63889;50.596;8.690;2023-05-10T11:50:09;15.60;99.90
14170;DHT22;63889;50.596;8.690;2023-05-10T11:52:36;15.70;99.90
14170;DHT22;63889;50.596;8.690;2023-05-10T11:55:05;15.80;99.90
14170;DHT22;63889;50.596;8.690;2023-05-10T11:57:31;15.70;99.90
14170;DHT22;63889;50.596;8.690;2023-05-10T11:59:57;15.80;99.90
14170;DHT22;63889;50.596;8.690;2023-05-10T12:02:23;15.70;99.90
14170;DHT22;63889;50.596;8.690;2023-05-10T12:04:49;15.70;99.90
14170;DHT22;63889;50.596;8.690;2023-05-10T12:07:16;15.70;99.90
14170;DHT22;63889;50.596;8.690;2023-05-10T12:10:01;15.60;99.90
14170;DHT22;63889;50.596;8.690;2023-05-10T12:12:27;15.60;99.90
14170;DHT22;63889;50.596;8.690;2023-05-10T12:14:52;15.60;99.90
14170;DHT22;63889;50.596;8.690;2023-05-10T12:17:18;15.60;99.90
14170;DHT22;63889;50.596;8.690;2023-05-10T12:19:43;15.60;99.90
14170;DHT22;63889;50.596;8.690;2023-05-10T12:22:09;15.60;99.90
14170;DHT22;63889;50.596;8.690;2023-05-10T12:24:37;15.60;99.90
14170;DHT22;63889;50.596;8.690;2023-05-10T12:27:10;15.80;99.90
14170;DHT22;63889;50.596;8.690;2023-05-10T12:29:41;15.90;99.90
14170;DHT22;63889;50.596;8.690;2023-05-10T12:32:09;15.90;99.90
14170;DHT22;63889;50.596;8.690;2023-05-10T12:34:35;15.90;99.90
14170;DHT22;63889;50.596;8.690;2023-05-10T12:37:04;16.10;99.90
14170;DHT22;63889;50.596;8.690;2023-05-10T12:39:43;16.10;99.90
14170;DHT22;63889;50.596;8.690;2023-05-10T12:42:10;16.10;99.90
14170;DHT22;63889;50.596;8.690;2023-05-10T12:44:35;16.10;99.90
14170;DHT22;63889;50.596;8.690;2023-05-10T12:47:01;16.00;99.90
14170;DHT22;63889;50.596;8.690;2023-05-10T12:49:26;16.00;99.90
14170;DHT22;63889;50.596;8.690;2023-05-10T12:51:52;16.00;99.90
14170;DHT22;63889;50.596;8.690;2023-05-10T12:54:17;16.00;99.90
14170;DHT22;63889;50.596;8.690;2023-05-10T12:56:43;16.00;99.90
14170;DHT22;63889;50.596;8.690;2023-05-10T12:59:08;16.00;99.90
14170;DHT22;63889;50.596;8.690;2023-05-10T13:01:34;16.10;99.90
14170;DHT22;63889;50.596;8.690;2023-05-10T13:03:59;16.20;99.90
14170;DHT22;63889;50.596;8.690;2023-05-10T13:06:25;16.20;99.90
14170;DHT22;63889;50.596;8.690;2023-05-10T13:08:51;16.30;99.90
14170;DHT22;63889;50.596;8.690;2023-05-10T13:11:17;16.30;99.90
14170;DHT22;63889;50.596;8.690;2023-05-10T13:13:44;16.40;99.90
14170;DHT22;63889;50.596;8.690;2023-05-10T13:16:10;16.60;99.90
14170;DHT22;63889;50.596;8.690;2023-05-10T13:18:35;16.90;99.90
14170;DHT22;63889;50.596;8.690;2023-05-10T13:21:01;17.20;99.90
14170;DHT22;63889;50.596;8.690;2023-05-10T13:23:29;17.20;99.90
14170;DHT22;63889;50.596;8.690;2023-05-10T13:25:54;17.10;99.90
14170;DHT22;63889;50.596;8.690;2023-05-10T13:28:20;17.30;99.90
14170;DHT22;63889;50.596;8.690;2023-05-10T13:30:45;17.40;99.90
14170;DHT22;63889;50.596;8.690;2023-05-10T13:33:11;17.40;99.90
14170;DHT22;63889;50.596;8.690;2023-05-10T13:35:37;17.20;99.90
14170;DHT22;63889;50.596;8.690;2023-05-10T13:38:02;17.20;99.90
14170;DHT22;63889;50.596;8.690;2023-05-10T13:40:28;17.10;99.90
14170;DHT22;63889;50.596;8.690;2023-05-10T13:42:53;17.10;99.90
14170;DHT22;63889;50.596;8.690;2023-05-10T13:45:19;17.00;99.90
14170;DHT22;63889;50.596;8.690;2023-05-10T13:47:45;16.80;99.90
14170;DHT22;63889;50.596;8.690;2023-05-10T13:50:10;17.00;99.90
14170;DHT22;63889;50.596;8.690;2023-05-10T13:52:36;16.90;99.90
14170;DHT22;63889;50.596;8.690;2023-05-10T13:55:01;17.00;99.90
14170;DHT22;63889;50.596;8.690;2023-05-10T13:57:27;17.20;99.90
14170;DHT22;63889;50.596;8.690;2023-05-10T13:59:54;17.30;99.90
14170;DHT22;63889;50.596;8.690;2023-05-10T14:02:19;17.40;99.90
14170;DHT22;63889;50.596;8.690;2023-05-10T14:04:45;17.50;99.90
14170;DHT22;63889;50.596;8.690;2023-05-10T14:07:11;17.60;99.90
14170;DHT22;63889;50.596;8.690;2023-05-10T14:09:36;17.70;99.90
14170;DHT22;63889;50.596;8.690;2023-05-10T14:12:02;18.00;99.90
14170;DHT22;63889;50.596;8.690;2023-05-10T14:14:27;18.00;99.90
14170;DHT22;63889;50.596;8.690;2023-05-10T14:16:54;18.00;99.90
14170;DHT22;63889;50.596;8.690;2023-05-10T14:19:20;18.20;99.90
14170;DHT22;63889;50.596;8.690;2023-05-10T14:21:46;18.20;99.90
14170;DHT22;63889;50.596;8.690;2023-05-10T14:24:11;18.30;99.90
14170;DHT22;63889;50.596;8.690;2023-05-10T14:26:37;18.40;99.90
14170;DHT22;63889;50.596;8.690;2023-05-10T14:29:02;18.60;99.90
14170;DHT22;63889;50.596;8.690;2023-05-10T14:31:28;18.50;99.90
14170;DHT22;63889;50.596;8.690;2023-05-10T14:33:55;18.40;99.90
14170;DHT22;63889;50.596;8.690;2023-05-10T14:36:21;18.20;99.90
14170;DHT22;63889;50.596;8.690;2023-05-10T14:38:46;18.20;99.90
14170;DHT22;63889;50.596;8.690;2023-05-10T14:41:12;18.20;99.90
14170;DHT22;63889;50.596;8.690;2023-05-10T14:43:40;18.30;99.90
14170;DHT22;63889;50.596;8.690;2023-05-10T14:46:06;18.50;99.90
14170;DHT22;63889;50.596;8.690;2023-05-10T14:48:32;18.50;99.90
14170;DHT22;63889;50.596;8.690;2023-05-10T14:50:57;18.40;99.90
14170;DHT22;63889;50.596;8.690;2023-05-10T14:53:23;18.30;99.90
14170;DHT22;63889;50.596;8.690;2023-05-10T14:55:48;18.50;99.90
14170;DHT22;63889;50.596;8.690;2023-05-10T14:58:14;18.60;99.90
14170;DHT22;63889;50.596;8.690;2023-05-10T15:00:40;18.40;99.90
14170;DHT22;63889;50.596;8.690;2023-05-10T15:03:06;18.20;99.90
14170;DHT22;63889;50.596;8.690;2023-05-10T15:05:31;18.20;99.90
14170;DHT22;63889;50.596;8.690;2023-05-10T15:07:57;18.40;99.90
14170;DHT22;63889;50.596;8.690;2023-05-10T15:10:22;18.40;99.90
14170;DHT22;63889;50.596;8.690;2023-05-10T15:12:48;18.60;99.90
14170;DHT22;63889;50.596;8.690;2023-05-10T15:15:13;18.50;99.90
14170;DHT22;63889;50.596;8.690;2023-05-10T15:17:39;18.40;99.90
14170;DHT22;63889;50.596;8.690;2023-05-10T15:20:05;18.40;99.90
14170;DHT22;63889;50.596;8.690;2023-05-10T15:22:30;18.10;99.90
14170;DHT22;63889;50.596;8.690;2023-05-10T15:24:57;17.80;99.90
14170;DHT22;63889;50.596;8.690;2023-05-10T15:27:23;17.60;99.90
14170;DHT22;63889;50.596;8.690;2023-05-10T15:29:49;17.30;99.90
14170;DHT22;63889;50.596;8.690;2023-05-10T15:32:14;17.30;99.90
14170;DHT22;63889;50.596;8.690;2023-05-10T15:34:40;17.30;99.90
14170;DHT22;63889;50.596;8.690;2023-05-10T15:37:06;17.20;99.90
14170;DHT22;63889;50.596;8.690;2023-05-10T15:39:31;17.20;99.90
14170;DHT22;63889;50.596;8.690;2023-05-10T15:41:57;17.10;99.90
14170;DHT22;63889;50.596;8.690;2023-05-10T15:44:23;17.10;99.90
14170;DHT22;63889;50.596;8.690;2023-05-10T15:46:49;17.10;99.90
14170;DHT22;63889;50.596;8.690;2023-05-10T15:49:14;17.10;99.90
14170;DHT22;63889;50.596;8.690;2023-05-10T15:51:40;17.10;99.90
14170;DHT22;63889;50.596;8.690;2023-05-10T15:54:06;17.20;99.90
14170;DHT22;63889;50.596;8.690;2023-05-10T15:56:34;17.20;99.90
14170;DHT22;63889;50.596;8.690;2023-05-10T15:59:00;17.20;99.90
14170;DHT22;63889;50.596;8.690;2023-05-10T16:01:26;17.20;99.90
14170;DHT22;63889;50.596;8.690;2023-05-10T16:03:51;17.30;99.90
14170;DHT22;63889;50.596;8.690;2023-05-10T16:06:17;17.20;99.90